Time;durP1;ratioP1;P1;durP2;ratioP2;P2;SDS_P1;SDS_P2;PMS_P1;PMS_P2;Temp;Humidity;BMP_temperature;BMP_pressure;BME280_temperature;BME280_humidity;BME280_pressure;Samples;Min_cycle;Max_cycle;Signal;HPM_P1;HPM_P2
2022/01/13 00:02:08;;;;;;;15.30;5.93;;;2.40;99.90;;;;;;4944787;28;20058;-62
2022/01/13 00:04:33;;;;;;;7.10;3.55;;;2.30;99.90;;;;;;4947769;28;20034;-62
2022/01/13 00:06:59;;;;;;;11.65;4.57;;;2.20;99.90;;;;;;4944076;28;20031;-62
2022/01/13 00:09:25;;;;;;;6.85;3.88;;;2.10;99.90;;;;;;4945577;28;20563;-62
2022/01/13 00:11:51;;;;;;;9.65;4.45;;;2.10;99.90;;;;;;4953531;28;20027;-62
2022/01/13 00:17:07;;;;;;;11.88;5.35;;;1.90;99.90;;;;;;4946116;28;20082;-62
2022/01/13 00:22:01;;;;;;;39.97;5.72;;;1.90;99.90;;;;;;4948092;28;20051;-62
2022/01/13 00:24:27;;;;;;;7.72;3.10;;;1.80;99.90;;;;;;4944369;28;20027;-62
2022/01/13 00:26:54;;;;;;;7.93;4.20;;;1.60;99.90;;;;;;4950725;28;20050;-62
2022/01/13 00:29:26;;;;;;;12.65;5.40;;;1.60;99.90;;;;;;4949145;28;20028;-63
2022/01/13 00:31:52;;;;;;;14.27;5.93;;;1.50;99.90;;;;;;4931774;28;20399;-62
2022/01/13 00:34:18;;;;;;;18.13;6.15;;;1.40;99.90;;;;;;4945468;28;20031;-62
2022/01/13 00:36:44;;;;;;;13.43;6.13;;;1.40;99.90;;;;;;4946909;28;20039;-62
2022/01/13 00:39:11;;;;;;;15.95;6.13;;;1.30;99.90;;;;;;4949439;28;20035;-62
2022/01/13 00:41:37;;;;;;;13.52;5.38;;;1.20;99.90;;;;;;4944581;28;20141;-62
2022/01/13 00:44:05;;;;;;;8.52;4.13;;;1.30;99.90;;;;;;4951396;28;20073;-62
2022/01/13 00:46:41;;;;;;;9.02;4.05;;;1.50;99.90;;;;;;4946571;28;20066;-62
2022/01/13 00:49:08;;;;;;;9.52;3.88;;;1.50;99.90;;;;;;4950996;28;20464;-63
2022/01/13 00:51:34;;;;;;;14.95;4.20;;;1.70;99.90;;;;;;4947816;28;20075;-62
2022/01/13 00:54:04;;;;;;;16.30;5.03;;;1.80;99.90;;;;;;4949463;28;20423;-62
2022/01/13 00:56:32;;;;;;;8.20;4.13;;;1.90;99.90;;;;;;4944353;28;20077;-62
2022/01/13 00:58:59;;;;;;;13.77;5.05;;;2.00;99.90;;;;;;4945829;28;20455;-62
2022/01/13 01:01:25;;;;;;;17.63;5.78;;;2.00;99.90;;;;;;4943240;28;20439;-62
2022/01/13 01:03:50;;;;;;;16.00;5.95;;;2.00;99.90;;;;;;4943878;28;20032;-62
2022/01/13 01:06:16;;;;;;;14.40;4.93;;;2.00;99.90;;;;;;4945333;28;20025;-62
2022/01/13 01:08:43;;;;;;;9.55;5.43;;;2.00;99.90;;;;;;4951674;28;20491;-62
2022/01/13 01:11:08;;;;;;;11.40;5.03;;;2.00;99.90;;;;;;4950659;28;20106;-62
2022/01/13 01:13:35;;;;;;;9.63;4.35;;;2.00;99.90;;;;;;4943949;28;20167;-63
2022/01/13 01:16:05;;;;;;;10.43;6.03;;;2.00;99.90;;;;;;4947271;28;20023;-62
2022/01/13 01:18:50;;;;;;;13.05;5.88;;;2.00;99.90;;;;;;4952065;28;20019;-62
2022/01/13 01:26:49;;;;;;;13.80;4.63;;;2.10;99.90;;;;;;4946331;28;20389;-62
2022/01/13 01:31:54;;;;;;;11.20;5.22;;;2.10;99.90;;;;;;4947550;28;20065;-62
2022/01/13 01:37:17;;;;;;;12.05;5.38;;;2.20;99.90;;;;;;4945785;28;20042;-62
2022/01/13 01:39:48;;;;;;;21.02;6.18;;;2.20;99.90;;;;;;4950837;28;20030;-62
2022/01/13 01:42:15;;;;;;;10.60;5.30;;;2.20;99.90;;;;;;4933917;29;20031;-63
2022/01/13 01:44:44;;;;;;;14.43;5.43;;;2.20;99.90;;;;;;4942374;29;20050;-62
2022/01/13 01:47:15;;;;;;;7.70;3.67;;;2.30;99.90;;;;;;4948782;28;20047;-62
2022/01/13 01:49:45;;;;;;;10.90;5.35;;;2.30;99.90;;;;;;4947335;29;20027;-62
2022/01/13 01:52:15;;;;;;;26.90;8.38;;;2.30;99.90;;;;;;4945833;29;20475;-63
2022/01/13 01:54:41;;;;;;;18.73;6.95;;;2.30;99.90;;;;;;4949190;28;20046;-62
2022/01/13 01:57:08;;;;;;;21.10;8.07;;;2.30;99.90;;;;;;4949352;28;20671;-63
2022/01/13 01:59:38;;;;;;;17.10;5.88;;;2.30;99.90;;;;;;4946879;28;20046;-62
2022/01/13 02:02:04;;;;;;;16.75;5.78;;;2.40;99.90;;;;;;4942135;28;20026;-62
2022/01/13 02:04:31;;;;;;;25.38;6.63;;;2.30;99.90;;;;;;4948129;28;20026;-62
2022/01/13 02:07:01;;;;;;;18.52;6.22;;;2.20;99.90;;;;;;4942762;28;20030;-62
2022/01/13 02:09:27;;;;;;;14.10;6.35;;;2.30;99.90;;;;;;4944714;28;20032;-62
2022/01/13 02:11:57;;;;;;;19.73;6.43;;;2.40;99.90;;;;;;4947592;28;20020;-62
2022/01/13 02:16:56;;;;;;;7.40;4.10;;;2.40;99.90;;;;;;4950654;28;20035;-62
2022/01/13 02:19:24;;;;;;;15.20;5.47;;;2.40;99.90;;;;;;4947387;28;20039;-62
2022/01/13 02:21:50;;;;;;;15.50;4.95;;;2.30;99.90;;;;;;4952989;28;20068;-62
2022/01/13 02:24:16;;;;;;;8.18;4.38;;;2.40;99.90;;;;;;4946823;28;20059;-62
2022/01/13 02:26:42;;;;;;;13.10;6.10;;;2.30;99.90;;;;;;4947157;28;20118;-62
2022/01/13 02:29:07;;;;;;;19.30;6.15;;;2.40;99.90;;;;;;4952708;28;20118;-62
2022/01/13 02:31:33;;;;;;;29.17;5.65;;;2.30;99.90;;;;;;4953141;28;20030;-62
2022/01/13 02:33:58;;;;;;;13.98;5.22;;;2.20;99.90;;;;;;4937170;29;20079;-62
2022/01/13 02:36:25;;;;;;;16.27;3.97;;;2.20;99.90;;;;;;4944943;28;20035;-62
2022/01/13 02:38:53;;;;;;;13.77;6.45;;;2.10;99.90;;;;;;4954530;28;20081;-62
2022/01/13 02:41:23;;;;;;;13.05;5.75;;;2.20;99.90;;;;;;4947964;28;20062;-62
2022/01/13 02:43:50;;;;;;;9.15;4.28;;;2.20;99.90;;;;;;4955511;28;20023;-62
2022/01/13 02:49:05;;;;;;;14.30;5.88;;;2.10;99.90;;;;;;4954933;28;20550;-62
2022/01/13 02:51:30;;;;;;;10.93;4.70;;;2.10;99.90;;;;;;4948417;28;20032;-62
2022/01/13 02:53:56;;;;;;;11.38;4.43;;;2.10;99.90;;;;;;4951271;28;20103;-63
2022/01/13 02:56:23;;;;;;;11.00;5.85;;;2.20;99.90;;;;;;4949166;28;20037;-62
2022/01/13 02:58:48;;;;;;;14.55;5.82;;;2.20;99.90;;;;;;4951044;28;20027;-63
2022/01/13 03:01:14;;;;;;;14.18;6.00;;;2.10;99.90;;;;;;4945639;28;20522;-62
2022/01/13 03:03:41;;;;;;;8.75;3.95;;;2.20;99.90;;;;;;4948561;29;20475;-62
2022/01/13 03:06:15;;;;;;;10.43;4.30;;;2.20;99.90;;;;;;4943931;28;20075;-62
2022/01/13 03:08:46;;;;;;;18.75;6.63;;;2.30;99.90;;;;;;4950835;28;20105;-62
2022/01/13 03:11:13;;;;;;;7.30;3.92;;;2.30;99.90;;;;;;4949206;28;20056;-62
2022/01/13 03:13:39;;;;;;;14.60;5.78;;;2.30;99.90;;;;;;4952677;28;20487;-62
2022/01/13 03:16:12;;;;;;;24.88;6.28;;;2.30;99.90;;;;;;4947095;28;20035;-62
2022/01/13 03:18:39;;;;;;;13.27;5.88;;;2.30;99.90;;;;;;4928138;29;20384;-63
2022/01/13 03:21:06;;;;;;;24.25;7.32;;;2.30;99.90;;;;;;4954574;28;20042;-62
2022/01/13 03:23:33;;;;;;;13.40;7.47;;;2.30;99.90;;;;;;4944335;28;20086;-62
2022/01/13 03:25:59;;;;;;;20.02;8.00;;;2.20;99.90;;;;;;4951204;29;20027;-62
2022/01/13 03:28:38;;;;;;;11.43;6.10;;;2.20;99.90;;;;;;4953583;28;20050;-62
2022/01/13 03:31:04;;;;;;;20.92;5.32;;;2.20;99.90;;;;;;4947422;28;20027;-63
2022/01/13 03:33:30;;;;;;;28.85;6.93;;;2.20;99.90;;;;;;4954250;28;20111;-62
2022/01/13 03:35:57;;;;;;;16.13;4.88;;;2.20;99.90;;;;;;4947451;28;20110;-62
2022/01/13 03:38:23;;;;;;;20.05;7.32;;;2.20;99.90;;;;;;4954636;28;20107;-62
2022/01/13 03:40:49;;;;;;;13.95;4.75;;;2.30;99.90;;;;;;4949135;28;20495;-62
2022/01/13 03:43:16;;;;;;;16.40;5.25;;;2.30;99.90;;;;;;4948242;28;20027;-62
2022/01/13 03:45:42;;;;;;;21.50;6.03;;;2.30;99.90;;;;;;4949285;28;20023;-62
2022/01/13 03:48:09;;;;;;;18.70;7.15;;;2.30;99.90;;;;;;4943613;28;20480;-62
2022/01/13 03:50:35;;;;;;;24.80;8.43;;;2.30;99.90;;;;;;4951445;28;20105;-62
2022/01/13 03:53:01;;;;;;;15.57;6.10;;;2.30;99.90;;;;;;4949422;28;20047;-62
2022/01/13 03:55:55;;;;;;;14.63;6.22;;;2.30;99.90;;;;;;4944606;29;20059;-62
2022/01/13 03:58:59;;;;;;;13.77;6.80;;;2.30;99.90;;;;;;4942383;28;20472;-62
2022/01/13 04:01:52;;;;;;;7.70;3.35;;;2.30;99.90;;;;;;4951304;28;20037;-62
2022/01/13 04:04:18;;;;;;;16.17;7.20;;;2.30;99.90;;;;;;4951114;28;20459;-63
2022/01/13 04:06:45;;;;;;;17.25;6.32;;;2.30;99.90;;;;;;4944140;28;20027;-62
2022/01/13 04:09:32;;;;;;;19.85;6.18;;;2.30;99.90;;;;;;4948192;28;20035;-62
2022/01/13 04:12:00;;;;;;;14.35;6.38;;;2.30;99.90;;;;;;4951365;28;20027;-63
2022/01/13 04:14:30;;;;;;;16.05;6.22;;;2.30;99.90;;;;;;4946629;28;20043;-62
2022/01/13 04:16:56;;;;;;;14.00;5.82;;;2.30;99.90;;;;;;4948506;28;20042;-62
2022/01/13 04:19:22;;;;;;;22.17;5.45;;;2.30;99.90;;;;;;4950886;28;20035;-62
2022/01/13 04:21:48;;;;;;;16.45;4.85;;;2.30;99.90;;;;;;4932747;29;20035;-62
2022/01/13 04:24:13;;;;;;;11.13;4.70;;;2.30;99.90;;;;;;4946006;28;20031;-62
2022/01/13 04:26:41;;;;;;;12.52;6.03;;;2.30;99.90;;;;;;4946857;28;20028;-62
2022/01/13 04:31:36;;;;;;;20.90;7.88;;;2.30;99.90;;;;;;4949774;28;20054;-63
2022/01/13 04:34:02;;;;;;;13.52;3.30;;;2.20;99.90;;;;;;4949834;28;20434;-62
2022/01/13 04:36:27;;;;;;;22.50;8.88;;;2.40;99.90;;;;;;4945734;28;20118;-62
2022/01/13 04:38:53;;;;;;;26.52;7.40;;;2.30;99.90;;;;;;4948866;28;20063;-62
2022/01/13 04:41:41;;;;;;;11.55;6.10;;;2.30;99.90;;;;;;4951172;29;20609;-62
2022/01/13 04:44:12;;;;;;;20.15;7.53;;;2.30;99.90;;;;;;4945572;28;20043;-62
2022/01/13 04:46:39;;;;;;;10.35;5.47;;;2.30;99.90;;;;;;4945499;28;20040;-62
2022/01/13 04:49:05;;;;;;;19.50;7.25;;;2.30;99.90;;;;;;4946071;28;20027;-62
2022/01/13 04:51:32;;;;;;;12.10;6.45;;;2.30;99.90;;;;;;4930617;28;20031;-62
2022/01/13 04:53:58;;;;;;;36.45;7.15;;;2.40;99.90;;;;;;4955821;28;20031;-62
2022/01/13 04:56:41;;;;;;;12.80;5.18;;;2.50;99.90;;;;;;4951150;28;20039;-62
2022/01/13 04:59:08;;;;;;;19.33;7.50;;;2.40;99.90;;;;;;4952877;28;20582;-62
2022/01/13 05:01:33;;;;;;;21.23;6.85;;;2.40;99.90;;;;;;4954066;28;20118;-62
2022/01/13 05:03:59;;;;;;;19.77;6.97;;;2.30;99.90;;;;;;4940720;28;20098;-63
2022/01/13 05:06:25;;;;;;;13.98;5.10;;;2.40;99.90;;;;;;4924470;29;20033;-62
2022/01/13 05:08:51;;;;;;;13.05;4.40;;;2.50;99.90;;;;;;4938902;28;20036;-62
2022/01/13 05:11:18;;;;;;;7.82;3.30;;;2.50;99.90;;;;;;4950935;28;20026;-62
2022/01/13 05:13:44;;;;;;;18.48;6.18;;;2.40;99.90;;;;;;4946705;28;20053;-63
2022/01/13 05:16:37;;;;;;;21.90;5.93;;;2.30;99.90;;;;;;4948730;28;20034;-62
2022/01/13 05:24:08;;;;;;;23.02;6.03;;;2.30;99.90;;;;;;4964136;28;20022;-62
2022/01/13 05:26:34;;;;;;;25.13;7.80;;;2.40;99.90;;;;;;4934208;28;20472;-63
2022/01/13 05:29:00;;;;;;;23.17;6.68;;;2.40;99.90;;;;;;4962775;28;20021;-63
2022/01/13 05:31:25;;;;;;;3.22;2.30;;;2.40;99.90;;;;;;4959331;28;20106;-62
2022/01/13 05:33:51;;;;;;;18.45;6.43;;;2.40;99.90;;;;;;4944007;28;20063;-62
2022/01/13 05:36:16;;;;;;;10.82;3.47;;;2.40;99.90;;;;;;4944665;28;20143;-62
2022/01/13 05:38:43;;;;;;;18.98;7.45;;;2.40;99.90;;;;;;4947424;28;20047;-62
2022/01/13 05:41:09;;;;;;;8.60;4.25;;;2.40;99.90;;;;;;4945047;28;20059;-62
2022/01/13 05:43:35;;;;;;;19.40;5.38;;;2.30;99.90;;;;;;4934695;29;20038;-63
2022/01/13 05:46:01;;;;;;;14.55;5.53;;;2.20;99.90;;;;;;4943992;28;20019;-62
2022/01/13 05:48:27;;;;;;;13.70;6.50;;;2.30;99.90;;;;;;4946978;28;20024;-62
2022/01/13 05:50:52;;;;;;;10.70;5.60;;;2.30;99.90;;;;;;4950010;28;20777;-62
2022/01/13 05:53:18;;;;;;;11.82;6.25;;;2.30;99.90;;;;;;4959603;28;20414;-62
2022/01/13 05:55:44;;;;;;;20.02;7.65;;;2.40;99.90;;;;;;4950524;28;20046;-63
2022/01/13 05:58:09;;;;;;;34.55;6.85;;;2.30;99.90;;;;;;4948763;28;20038;-62
2022/01/13 06:00:36;;;;;;;10.57;4.18;;;2.30;99.90;;;;;;4947205;28;20075;-62
2022/01/13 06:03:02;;;;;;;30.55;5.45;;;2.30;99.90;;;;;;4943308;28;20405;-62
2022/01/13 06:05:28;;;;;;;16.75;6.63;;;2.40;99.90;;;;;;4953059;28;20030;-63
2022/01/13 06:07:54;;;;;;;17.27;7.13;;;2.40;99.90;;;;;;4943634;28;20099;-62
2022/01/13 06:10:20;;;;;;;13.05;5.40;;;2.40;99.90;;;;;;4953355;28;20023;-62
2022/01/13 06:12:50;;;;;;;19.55;5.40;;;2.40;99.90;;;;;;4954838;28;20035;-62
2022/01/13 06:15:18;;;;;;;8.52;4.95;;;2.30;99.90;;;;;;4954981;28;20022;-62
2022/01/13 06:17:45;;;;;;;10.73;4.45;;;2.40;99.90;;;;;;4950768;28;20118;-62
2022/01/13 06:20:12;;;;;;;7.70;2.83;;;2.40;99.90;;;;;;4953350;28;20027;-62
2022/01/13 06:22:39;;;;;;;21.80;6.80;;;2.40;99.90;;;;;;4946741;28;20057;-63
2022/01/13 06:25:06;;;;;;;7.18;3.65;;;2.40;99.90;;;;;;4959967;28;20400;-63
2022/01/13 06:27:32;;;;;;;13.80;5.57;;;2.40;99.90;;;;;;4953857;28;20098;-62
2022/01/13 06:29:58;;;;;;;9.00;4.18;;;2.30;99.90;;;;;;4956372;28;20416;-63
2022/01/13 06:32:24;;;;;;;15.07;6.47;;;2.40;99.90;;;;;;4945512;28;20027;-63
2022/01/13 06:34:51;;;;;;;12.52;5.47;;;2.40;99.90;;;;;;4953189;28;20039;-62
2022/01/13 06:37:18;;;;;;;10.98;4.43;;;2.40;99.90;;;;;;4946952;28;20046;-63
2022/01/13 06:39:44;;;;;;;28.55;7.10;;;2.50;99.90;;;;;;4953257;28;20114;-63
2022/01/13 06:42:11;;;;;;;13.40;4.65;;;2.40;99.90;;;;;;4952929;28;20031;-62
2022/01/13 06:44:36;;;;;;;16.88;4.28;;;2.40;99.90;;;;;;4951013;28;20035;-62
2022/01/13 06:47:03;;;;;;;8.95;3.58;;;2.40;99.90;;;;;;4949678;28;20498;-62
2022/01/13 06:49:28;;;;;;;14.32;3.65;;;2.40;99.90;;;;;;4950618;28;20023;-62
2022/01/13 06:51:54;;;;;;;11.63;4.38;;;2.50;99.90;;;;;;4952294;28;20146;-62
2022/01/13 06:54:20;;;;;;;26.48;7.10;;;2.50;99.90;;;;;;4952448;28;20059;-62
2022/01/13 06:56:45;;;;;;;15.45;6.30;;;2.40;99.90;;;;;;4949002;28;20526;-62
2022/01/13 06:59:13;;;;;;;6.65;3.75;;;2.40;99.90;;;;;;4958072;28;20035;-62
2022/01/13 07:01:40;;;;;;;13.30;5.80;;;2.40;99.90;;;;;;4934928;29;20043;-63
2022/01/13 07:04:09;;;;;;;8.90;4.78;;;2.40;99.90;;;;;;4948926;28;20023;-63
2022/01/13 07:06:35;;;;;;;7.50;2.97;;;2.30;99.90;;;;;;4947854;28;20090;-62
2022/01/13 07:09:01;;;;;;;13.43;5.47;;;2.40;99.90;;;;;;4954351;28;20033;-62
2022/01/13 07:11:26;;;;;;;16.58;5.07;;;2.40;99.90;;;;;;4955081;28;20024;-62
2022/01/13 07:13:52;;;;;;;9.20;5.40;;;2.30;99.90;;;;;;4943861;28;20034;-63
2022/01/13 07:16:20;;;;;;;16.75;5.00;;;2.30;99.90;;;;;;4939383;28;20023;-62
2022/01/13 07:18:46;;;;;;;13.07;4.55;;;2.30;99.90;;;;;;4942892;28;20023;-63
2022/01/13 07:21:15;;;;;;;12.23;4.80;;;2.30;99.90;;;;;;4933167;28;20567;-62
2022/01/13 07:23:41;;;;;;;9.38;3.03;;;2.30;99.90;;;;;;4955778;28;20118;-62
2022/01/13 07:26:06;;;;;;;13.82;4.70;;;2.20;99.90;;;;;;4951012;28;20047;-62
2022/01/13 07:28:32;;;;;;;15.52;6.47;;;2.30;99.90;;;;;;4952986;28;20048;-62
2022/01/13 07:30:58;;;;;;;6.28;3.22;;;2.30;99.90;;;;;;4949574;28;20034;-62
2022/01/13 07:33:24;;;;;;;6.93;3.30;;;2.30;99.90;;;;;;4944747;28;20028;-62
2022/01/13 07:35:50;;;;;;;25.88;6.68;;;2.40;99.90;;;;;;4954399;28;20609;-62
2022/01/13 07:38:16;;;;;;;19.77;6.40;;;2.30;99.90;;;;;;4954078;28;20793;-62
2022/01/13 07:40:42;;;;;;;6.93;3.85;;;2.30;99.90;;;;;;4947064;28;20030;-62
2022/01/13 07:43:08;;;;;;;17.27;4.32;;;2.30;99.90;;;;;;4954157;28;20036;-62
2022/01/13 07:45:33;;;;;;;11.48;4.63;;;2.30;99.90;;;;;;4954626;28;20024;-62
2022/01/13 07:47:59;;;;;;;10.95;3.47;;;2.20;99.90;;;;;;4951476;28;20032;-62
2022/01/13 07:50:25;;;;;;;3.20;1.90;;;2.20;99.90;;;;;;4951115;28;20027;-63
2022/01/13 07:52:51;;;;;;;5.32;3.03;;;2.30;99.90;;;;;;4948761;28;20027;-63
2022/01/13 07:55:17;;;;;;;23.33;5.03;;;2.30;99.90;;;;;;4948216;28;20126;-63
2022/01/13 07:57:43;;;;;;;20.55;6.43;;;2.30;99.90;;;;;;4946689;28;20122;-62
2022/01/13 08:00:11;;;;;;;6.65;2.97;;;2.30;99.90;;;;;;4949417;28;20031;-62
2022/01/13 08:02:36;;;;;;;7.18;3.70;;;2.40;99.90;;;;;;4949478;28;20062;-63
2022/01/13 08:05:03;;;;;;;8.77;4.72;;;2.30;99.90;;;;;;4950003;28;20078;-62
2022/01/13 08:07:29;;;;;;;6.32;2.70;;;2.30;99.90;;;;;;4945843;28;20027;-62
2022/01/13 08:09:55;;;;;;;12.45;5.18;;;2.30;99.90;;;;;;4949819;28;20502;-62
2022/01/13 08:12:20;;;;;;;14.13;4.07;;;2.30;99.90;;;;;;4951258;28;20032;-62
2022/01/13 08:14:50;;;;;;;12.52;6.63;;;2.30;99.90;;;;;;4948382;28;20038;-62
2022/01/13 08:19:45;;;;;;;19.70;6.40;;;2.20;99.90;;;;;;4947617;28;20023;-62
2022/01/13 08:20:05;;;;;;;29.52;6.25;;;2.20;99.90;;;;;;4948114;28;20027;-62
2022/01/13 08:22:31;;;;;;;11.85;4.35;;;2.20;99.90;;;;;;4948715;28;20028;-62
2022/01/13 08:24:57;;;;;;;12.43;4.60;;;2.20;99.90;;;;;;4949446;28;20054;-62
2022/01/13 08:27:23;;;;;;;17.40;5.45;;;2.20;99.90;;;;;;4946626;28;20043;-62
2022/01/13 08:29:48;;;;;;;15.75;5.22;;;2.20;99.90;;;;;;4954035;28;20475;-62
2022/01/13 08:32:14;;;;;;;13.35;6.03;;;2.20;99.90;;;;;;4952837;28;20042;-62
2022/01/13 08:34:40;;;;;;;13.50;5.50;;;2.30;99.90;;;;;;4953467;28;20376;-62
2022/01/13 08:37:05;;;;;;;13.38;5.20;;;2.30;99.90;;;;;;4933724;29;20062;-62
2022/01/13 08:39:38;;;;;;;21.55;5.28;;;2.30;99.90;;;;;;4953883;28;20043;-62
2022/01/13 08:42:04;;;;;;;12.15;4.57;;;2.30;99.90;;;;;;4954206;28;20126;-62
2022/01/13 08:44:29;;;;;;;13.80;5.10;;;2.30;99.90;;;;;;4953703;28;20740;-62
2022/01/13 08:46:55;;;;;;;22.05;6.43;;;2.40;99.90;;;;;;4948729;28;20031;-62
2022/01/13 08:49:20;;;;;;;16.33;6.43;;;2.50;99.90;;;;;;4936873;28;20114;-62
2022/01/13 08:51:46;;;;;;;10.52;5.47;;;2.50;99.90;;;;;;4950288;28;20094;-62
2022/01/13 08:54:12;;;;;;;16.33;6.40;;;2.60;99.90;;;;;;4933882;28;20028;-62
2022/01/13 08:56:38;;;;;;;12.25;4.15;;;2.60;99.90;;;;;;4945271;28;20034;-62
2022/01/13 08:59:04;;;;;;;13.10;6.88;;;2.70;99.90;;;;;;4949861;28;20038;-62
2022/01/13 09:01:30;;;;;;;18.05;6.57;;;2.70;99.90;;;;;;4934719;29;20031;-62
2022/01/13 09:03:56;;;;;;;13.50;4.38;;;2.90;99.90;;;;;;4951640;28;20025;-62
2022/01/13 09:06:22;;;;;;;19.08;5.72;;;3.90;99.90;;;;;;4931272;29;20399;-62
2022/01/13 09:08:48;;;;;;;11.07;5.55;;;3.90;99.90;;;;;;4952129;28;20023;-62
2022/01/13 09:11:13;;;;;;;15.60;6.82;;;4.00;99.90;;;;;;4948131;28;20043;-62
2022/01/13 09:13:39;;;;;;;14.50;4.63;;;4.40;99.90;;;;;;4948377;28;20030;-62
2022/01/13 09:16:14;;;;;;;12.43;5.20;;;4.90;99.90;;;;;;4948186;28;20031;-62
2022/01/13 09:21:22;;;;;;;16.45;6.53;;;5.50;99.90;;;;;;4959058;28;20027;-62
2022/01/13 09:23:47;;;;;;;17.63;7.10;;;5.70;99.90;;;;;;4952923;28;20556;-63
2022/01/13 09:26:13;;;;;;;18.90;5.57;;;6.40;99.90;;;;;;4945556;28;20121;-63
2022/01/13 09:28:39;;;;;;;19.17;6.30;;;7.00;99.90;;;;;;4947155;28;20051;-64
2022/01/13 09:31:05;;;;;;;17.13;7.15;;;7.50;99.90;;;;;;4941019;28;20107;-64
2022/01/13 09:33:31;;;;;;;20.33;6.53;;;7.50;99.90;;;;;;4946277;28;20027;-63
2022/01/13 09:35:58;;;;;;;27.33;7.47;;;7.50;99.90;;;;;;4944498;28;20027;-63
2022/01/13 09:38:24;;;;;;;12.32;4.43;;;7.40;99.90;;;;;;4944299;28;20046;-62
2022/01/13 09:40:53;;;;;;;19.40;5.03;;;6.50;99.90;;;;;;4948488;28;20039;-62
2022/01/13 09:43:25;;;;;;;12.63;5.65;;;6.20;99.90;;;;;;4947075;28;20035;-63
2022/01/13 09:45:52;;;;;;;4.72;2.80;;;6.30;99.90;;;;;;4944829;28;20031;-63
2022/01/13 09:48:18;;;;;;;13.32;4.90;;;6.10;99.90;;;;;;4943578;28;20102;-63
2022/01/13 09:50:46;;;;;;;23.02;5.07;;;6.20;99.90;;;;;;4947471;28;20438;-63
2022/01/13 09:53:12;;;;;;;17.88;6.47;;;6.70;99.90;;;;;;4945352;28;20115;-63
2022/01/13 09:55:40;;;;;;;16.80;5.15;;;7.40;99.90;;;;;;4942151;28;20050;-63
2022/01/13 09:58:10;;;;;;;19.90;6.50;;;7.70;99.90;;;;;;4943981;28;20039;-63
2022/01/13 10:00:40;;;;;;;;;;;8.00;99.90;;;;;;4946240;28;20055;-63
2022/01/13 10:03:15;;;;;;;10.38;4.40;;;7.90;99.90;;;;;;4942842;28;20357;-62
2022/01/13 10:05:48;;;;;;;22.48;6.80;;;7.50;99.90;;;;;;4943859;28;20051;-63
2022/01/13 10:08:13;;;;;;;11.93;3.85;;;7.30;99.90;;;;;;4944515;28;20574;-63
2022/01/13 10:10:39;;;;;;;19.63;5.38;;;7.60;99.90;;;;;;4944541;28;20051;-63
2022/01/13 10:13:10;;;;;;;26.27;5.93;;;7.30;99.90;;;;;;4941445;28;20027;-64
2022/01/13 10:18:45;;;;;;;12.35;4.13;;;8.00;99.90;;;;;;4945837;28;20178;-63
2022/01/13 10:21:17;;;;;;;11.43;4.43;;;8.20;99.90;;;;;;4947335;28;20032;-62
2022/01/13 10:24:10;;;;;;;4.57;2.55;;;7.60;99.90;;;;;;4947590;28;20047;-63
2022/01/13 10:26:37;;;;;;;20.33;6.40;;;7.70;99.90;;;;;;4946500;28;20518;-62
2022/01/13 10:29:07;;;;;;;13.60;4.57;;;7.70;99.90;;;;;;4918522;29;20535;-63
2022/01/13 10:31:49;;;;;;;18.30;5.22;;;7.80;99.90;;;;;;4946446;28;20055;-62
2022/01/13 10:34:19;;;;;;;12.07;4.45;;;8.50;99.90;;;;;;4942458;28;20042;-63
2022/01/13 10:37:06;;;;;;;18.40;4.70;;;9.40;99.90;;;;;;4941035;28;20063;-63
2022/01/13 10:39:49;;;;;;;17.58;5.88;;;9.80;99.90;;;;;;4946147;28;20126;-64
2022/01/13 10:45:01;;;;;;;15.82;5.85;;;10.10;99.90;;;;;;4946098;28;20453;-64
2022/01/13 10:47:28;;;;;;;17.77;7.07;;;9.70;99.90;;;;;;4943978;28;20031;-63
2022/01/13 10:50:03;;;;;;;14.07;5.93;;;9.70;99.90;;;;;;4952536;28;20093;-63
2022/01/13 10:52:29;;;;;;;17.30;4.00;;;9.50;99.90;;;;;;4929427;28;20486;-63
2022/01/13 10:55:06;;;;;;;10.90;4.57;;;9.50;99.90;;;;;;4949232;28;20040;-63
2022/01/13 10:57:33;;;;;;;17.90;4.57;;;10.00;99.90;;;;;;4947913;28;20032;-62
2022/01/13 10:59:59;;;;;;;18.95;5.70;;;9.70;99.90;;;;;;4930104;28;20028;-63
2022/01/13 11:02:26;;;;;;;19.25;7.15;;;10.20;99.90;;;;;;4944831;28;20026;-63
2022/01/13 11:04:53;;;;;;;16.48;5.38;;;10.50;99.90;;;;;;4949487;28;20019;-63
2022/01/13 11:07:24;;;;;;;16.83;5.68;;;10.70;99.90;;;;;;4944208;28;20032;-63
2022/01/13 11:10:01;;;;;;;17.75;5.60;;;10.10;99.90;;;;;;4949390;28;20396;-63
2022/01/13 11:12:28;;;;;;;25.33;6.30;;;10.60;99.90;;;;;;4940118;28;20026;-64
2022/01/13 11:14:59;;;;;;;17.90;4.95;;;10.80;99.90;;;;;;4949284;28;20038;-63
2022/01/13 11:17:27;;;;;;;14.73;5.30;;;10.70;99.90;;;;;;4946435;28;20024;-63
2022/01/13 11:19:53;;;;;;;20.60;5.40;;;10.60;99.90;;;;;;4946241;28;20043;-63
2022/01/13 11:22:21;;;;;;;7.70;3.88;;;11.40;99.90;;;;;;4949904;28;20098;-63
2022/01/13 11:24:47;;;;;;;17.25;5.40;;;11.50;99.90;;;;;;4925412;29;20024;-63
2022/01/13 11:27:16;;;;;;;19.58;6.13;;;10.80;99.90;;;;;;4952005;28;20121;-63
2022/01/13 11:29:42;;;;;;;20.42;6.22;;;10.50;99.90;;;;;;4954166;28;20034;-63
2022/01/13 11:32:09;;;;;;;14.77;4.95;;;10.10;99.90;;;;;;4944012;28;20035;-63
2022/01/13 11:34:35;;;;;;;18.83;5.97;;;11.00;99.90;;;;;;4946429;28;20033;-63
2022/01/13 11:37:01;;;;;;;22.13;6.80;;;11.70;99.90;;;;;;4949589;28;20039;-64
2022/01/13 11:39:38;;;;;;;15.38;5.00;;;11.70;99.90;;;;;;4949967;28;20097;-64
2022/01/13 11:42:07;;;;;;;14.50;5.07;;;12.10;99.90;;;;;;4948335;28;20067;-64
2022/01/13 11:44:33;;;;;;;27.85;7.07;;;12.30;99.90;;;;;;4946854;28;20019;-63
2022/01/13 11:46:59;;;;;;;20.30;7.25;;;11.70;99.90;;;;;;4924549;29;20462;-63
2022/01/13 11:54:38;;;;;;;20.27;5.55;;;13.00;99.90;;;;;;4948492;28;20019;-62
2022/01/13 11:57:17;;;;;;;19.90;6.85;;;13.50;99.90;;;;;;4943043;28;20547;-62
2022/01/13 12:00:03;;;;;;;14.75;4.32;;;13.90;99.90;;;;;;4932294;28;20042;-63
2022/01/13 12:02:30;;;;;;;17.52;4.38;;;14.30;99.90;;;;;;4933687;28;20027;-64
2022/01/13 12:05:15;;;;;;;12.80;4.80;;;13.90;99.90;;;;;;4948239;28;20042;-63
2022/01/13 12:07:43;;;;;;;9.98;3.72;;;13.60;99.90;;;;;;4942895;28;20019;-63
2022/01/13 12:10:11;;;;;;;19.27;5.13;;;13.00;99.90;;;;;;4945457;28;20415;-63
2022/01/13 12:12:37;;;;;;;18.60;5.30;;;12.10;99.90;;;;;;4944165;28;20031;-63
2022/01/13 12:15:25;;;;;;;14.43;5.65;;;12.30;99.90;;;;;;4940709;28;20110;-63
2022/01/13 12:17:58;;;;;;;15.13;4.30;;;12.80;99.90;;;;;;4933331;29;20023;-64
2022/01/13 12:20:38;;;;;;;13.23;4.78;;;12.40;99.90;;;;;;4944590;28;20031;-63
2022/01/13 12:23:15;;;;;;;12.95;4.45;;;12.10;99.90;;;;;;4942130;28;20114;-63
2022/01/13 12:25:41;;;;;;;11.38;3.85;;;12.30;99.90;;;;;;4942521;28;20047;-63
2022/01/13 12:28:14;;;;;;;19.23;5.88;;;12.50;99.90;;;;;;4944797;28;20044;-63
2022/01/13 12:30:41;;;;;;;14.57;4.40;;;12.40;99.90;;;;;;4946950;28;20015;-64
2022/01/13 12:33:08;;;;;;;14.98;4.95;;;13.20;99.90;;;;;;4952239;28;20026;-64
2022/01/13 12:35:34;;;;;;;16.42;4.57;;;13.40;99.90;;;;;;4948432;28;20515;-64
2022/01/13 12:38:02;;;;;;;18.10;5.35;;;13.70;99.90;;;;;;4940599;28;20027;-64
2022/01/13 12:40:34;;;;;;;13.88;4.40;;;13.40;99.90;;;;;;4948653;28;20399;-61
2022/01/13 12:43:12;;;;;;;17.05;4.65;;;14.20;99.90;;;;;;4951750;28;20110;-61
2022/01/13 12:45:38;;;;;;;17.40;6.03;;;14.50;99.90;;;;;;4947530;28;20051;-63
2022/01/13 12:48:11;;;;;;;11.93;4.30;;;14.20;99.90;;;;;;4947312;28;20031;-64
2022/01/13 12:50:36;;;;;;;16.77;4.03;;;13.50;99.90;;;;;;4940048;28;20153;-63
2022/01/13 12:53:26;;;;;;;12.52;4.07;;;13.10;99.90;;;;;;4955498;28;20046;-63
2022/01/13 12:56:01;;;;;;;22.52;5.22;;;12.80;99.90;;;;;;4957020;28;20157;-63
2022/01/13 12:58:35;;;;;;;20.88;4.47;;;13.30;99.90;;;;;;4957628;28;20039;-63
2022/01/13 13:01:09;;;;;;;11.73;4.20;;;13.70;99.90;;;;;;4948452;28;20400;-64
2022/01/13 13:03:35;;;;;;;19.25;5.05;;;13.80;99.90;;;;;;4951563;28;20680;-64
2022/01/13 13:06:14;;;;;;;17.80;5.15;;;14.40;99.90;;;;;;4946949;28;20054;-61
2022/01/13 13:08:46;;;;;;;14.93;4.38;;;15.00;99.70;;;;;;4938809;28;20019;-63
2022/01/13 13:11:12;;;;;;;17.02;6.18;;;15.00;99.80;;;;;;4929487;28;20030;-63
2022/01/13 13:13:45;;;;;;;17.55;5.25;;;14.50;99.90;;;;;;4942130;28;20020;-64
2022/01/13 13:16:12;;;;;;;10.65;4.90;;;15.90;99.90;;;;;;4941355;28;20032;-62
2022/01/13 13:18:38;;;;;;;11.90;3.65;;;15.30;99.80;;;;;;4946460;28;20036;-63
2022/01/13 13:21:06;;;;;;;15.20;4.63;;;14.90;99.50;;;;;;4942723;28;20528;-63
2022/01/13 13:23:38;;;;;;;14.52;4.88;;;14.00;99.90;;;;;;4931142;28;20491;-63
2022/01/13 13:26:18;;;;;;;6.80;2.53;;;14.40;99.90;;;;;;4944120;28;20126;-63
2022/01/13 13:28:48;;;;;;;19.38;5.20;;;13.10;99.90;;;;;;4947572;28;20058;-63
2022/01/13 13:31:21;;;;;;;14.13;4.40;;;13.10;99.90;;;;;;4945380;28;20095;-64
2022/01/13 13:33:48;;;;;;;12.57;4.30;;;14.10;99.90;;;;;;4947649;28;20031;-63
2022/01/13 13:36:21;;;;;;;17.98;4.63;;;13.80;99.90;;;;;;4946158;28;20090;-63